Time;durP1;ratioP1;P1;durP2;ratioP2;P2;SDS_P1;SDS_P2;PMS_P1;PMS_P2;Temp;Humidity;BMP_temperature;BMP_pressure;BME280_temperature;BME280_humidity;BME280_pressure;Samples;Min_cycle;Max_cycle;Signal;HPM_P1;HPM_P2
2023/04/09 00:01:30;;;;;;;20.67;16.50;;;;;;;;;;5028817;28;20219;-71
2023/04/09 00:03:57;;;;;;;19.13;15.73;;;;;;;;;;5025806;28;20204;-72
2023/04/09 00:06:24;;;;;;;20.67;17.17;;;;;;;;;;5021858;28;20208;-72
2023/04/09 00:08:51;;;;;;;19.80;15.93;;;;;;;;;;5024442;28;20215;-71
2023/04/09 00:11:18;;;;;;;21.27;17.43;;;;;;;;;;5027130;28;20204;-72
2023/04/09 00:13:46;;;;;;;21.07;17.37;;;;;;;;;;5023281;28;20200;-72
2023/04/09 00:16:14;;;;;;;19.90;16.50;;;;;;;;;;5023002;28;20220;-71
2023/04/09 00:18:41;;;;;;;19.70;16.50;;;;;;;;;;5020760;28;20213;-72
2023/04/09 00:21:08;;;;;;;17.77;15.63;;;;;;;;;;5019560;28;20219;-73
2023/04/09 00:23:35;;;;;;;24.30;17.57;;;;;;;;;;5026150;28;20234;-72
2023/04/09 00:26:03;;;;;;;20.20;16.57;;;;;;;;;;5021274;28;20230;-72
2023/04/09 00:28:30;;;;;;;19.90;15.83;;;;;;;;;;5018188;28;20237;-71
2023/04/09 00:30:57;;;;;;;20.07;16.47;;;;;;;;;;5023947;28;20232;-72
2023/04/09 00:33:26;;;;;;;21.00;17.10;;;;;;;;;;5020781;28;20196;-72
2023/04/09 00:35:53;;;;;;;20.70;17.33;;;;;;;;;;5017009;28;20233;-72
2023/04/09 00:38:20;;;;;;;21.10;17.77;;;;;;;;;;5015898;28;20204;-72
2023/04/09 00:40:49;;;;;;;20.30;16.97;;;;;;;;;;5018316;28;20208;-72
2023/04/09 00:43:16;;;;;;;20.17;16.47;;;;;;;;;;5019995;28;20299;-72
2023/04/09 00:45:43;;;;;;;19.73;16.43;;;;;;;;;;5022680;28;20197;-72
2023/04/09 00:48:10;;;;;;;22.47;18.20;;;;;;;;;;5023757;28;20201;-72
2023/04/09 00:50:39;;;;;;;22.53;17.60;;;;;;;;;;5022658;28;20199;-72
2023/04/09 00:53:06;;;;;;;20.37;16.37;;;;;;;;;;5018213;28;20212;-72
2023/04/09 00:55:33;;;;;;;20.47;16.67;;;;;;;;;;5021715;28;20221;-72
2023/04/09 00:58:01;;;;;;;22.63;17.50;;;;;;;;;;5022697;28;20205;-72
2023/04/09 01:00:28;;;;;;;21.57;17.80;;;;;;;;;;5018133;28;20258;-72
2023/04/09 01:02:57;;;;;;;22.77;17.13;;;;;;;;;;5021270;28;20200;-72
2023/04/09 01:05:25;;;;;;;22.73;17.53;;;;;;;;;;5017574;28;20197;-71
2023/04/09 01:08:02;;;;;;;21.53;17.80;;;;;;;;;;5020853;28;20204;-72
2023/04/09 01:10:33;;;;;;;23.13;17.67;;;;;;;;;;5018799;28;20207;-72
2023/04/09 01:13:04;;;;;;;23.17;17.63;;;;;;;;;;5022631;28;20201;-72
2023/04/09 01:15:35;;;;;;;24.00;18.23;;;;;;;;;;5022168;28;20228;-72
2023/04/09 01:18:06;;;;;;;21.93;18.53;;;;;;;;;;5020306;28;20272;-72
2023/04/09 01:20:36;;;;;;;24.00;18.20;;;;;;;;;;5022510;28;20283;-72
2023/04/09 01:23:11;;;;;;;23.30;18.60;;;;;;;;;;5020497;28;20282;-71
2023/04/09 01:25:45;;;;;;;23.60;19.10;;;;;;;;;;5017878;28;20204;-72
2023/04/09 01:28:21;;;;;;;23.23;18.83;;;;;;;;;;5021265;28;20236;-71
2023/04/09 01:30:49;;;;;;;26.10;18.73;;;;;;;;;;5019660;28;20199;-72
2023/04/09 01:33:18;;;;;;;25.63;18.93;;;;;;;;;;5018556;28;20200;-72
2023/04/09 01:35:46;;;;;;;23.33;18.40;;;;;;;;;;5018014;28;20224;-73
2023/04/09 01:38:15;;;;;;;23.47;19.20;;;;;;;;;;5014202;28;20216;-72
2023/04/09 01:40:42;;;;;;;24.33;18.80;;;;;;;;;;5021736;28;20208;-72
2023/04/09 01:43:11;;;;;;;24.63;18.13;;;;;;;;;;5024643;28;20235;-72
2023/04/09 01:45:39;;;;;;;24.03;18.53;;;;;;;;;;5018781;28;20193;-73
2023/04/09 01:48:07;;;;;;;23.90;17.87;;;;;;;;;;5018345;28;20223;-72
2023/04/09 01:50:34;;;;;;;23.60;18.33;;;;;;;;;;5020145;28;20271;-72
2023/04/09 01:53:01;;;;;;;23.27;18.43;;;;;;;;;;5018604;28;20204;-72
2023/04/09 01:55:28;;;;;;;23.70;18.90;;;;;;;;;;5019638;28;20231;-72
2023/04/09 01:57:55;;;;;;;22.17;17.93;;;;;;;;;;5021368;28;20208;-72
2023/04/09 02:00:23;;;;;;;22.07;18.03;;;;;;;;;;5018266;28;20212;-72
2023/04/09 02:02:56;;;;;;;23.47;18.03;;;;;;;;;;5021279;28;20215;-72
2023/04/09 02:05:26;;;;;;;23.93;19.10;;;;;;;;;;5015824;28;20200;-72
2023/04/09 02:07:54;;;;;;;26.33;18.93;;;;;;;;;;5022935;28;20204;-72
2023/04/09 02:10:23;;;;;;;21.93;18.40;;;;;;;;;;5019094;28;20200;-72
2023/04/09 02:12:51;;;;;;;20.43;17.13;;;;;;;;;;5021988;28;20231;-72
2023/04/09 02:15:19;;;;;;;22.87;17.77;;;;;;;;;;5020554;28;20204;-72
2023/04/09 02:17:46;;;;;;;21.87;17.13;;;;;;;;;;5022267;28;20207;-72
2023/04/09 02:20:18;;;;;;;21.50;17.40;;;;;;;;;;5017712;28;20208;-72
2023/04/09 02:22:45;;;;;;;21.57;17.00;;;;;;;;;;5021432;28;20255;-72
2023/04/09 02:25:12;;;;;;;19.37;16.33;;;;;;;;;;5019474;28;20238;-73
2023/04/09 02:27:40;;;;;;;22.20;17.50;;;;;;;;;;5015716;28;20286;-72
2023/04/09 02:30:07;;;;;;;23.10;17.97;;;;;;;;;;5020833;28;20208;-72
2023/04/09 02:32:34;;;;;;;22.97;17.97;;;;;;;;;;5018380;28;20215;-73
2023/04/09 02:35:02;;;;;;;22.30;17.30;;;;;;;;;;5022597;28;20223;-72
2023/04/09 02:37:30;;;;;;;21.53;17.13;;;;;;;;;;5021625;28;20232;-73
2023/04/09 02:39:57;;;;;;;25.43;18.20;;;;;;;;;;5020211;28;20196;-72
2023/04/09 02:42:25;;;;;;;24.97;17.63;;;;;;;;;;5020431;28;20201;-72
2023/04/09 02:44:52;;;;;;;24.57;18.27;;;;;;;;;;5018313;28;20208;-72
2023/04/09 02:47:19;;;;;;;23.47;17.93;;;;;;;;;;5016934;28;20212;-72
2023/04/09 02:49:46;;;;;;;22.80;17.33;;;;;;;;;;5019990;28;20213;-72
2023/04/09 02:52:13;;;;;;;22.57;16.53;;;;;;;;;;5017463;28;20204;-73
2023/04/09 02:54:41;;;;;;;21.50;17.27;;;;;;;;;;5018676;28;20207;-72
2023/04/09 02:57:08;;;;;;;21.87;17.87;;;;;;;;;;5023867;28;20224;-72
2023/04/09 02:59:37;;;;;;;25.97;20.43;;;;;;;;;;5020482;28;20201;-72
2023/04/09 03:02:04;;;;;;;25.67;18.63;;;;;;;;;;5026410;28;20287;-72
2023/04/09 03:04:32;;;;;;;23.07;18.87;;;;;;;;;;5018551;28;20216;-72
2023/04/09 03:06:59;;;;;;;25.93;18.77;;;;;;;;;;5020801;28;20197;-72
2023/04/09 03:09:26;;;;;;;25.00;19.43;;;;;;;;;;5021191;28;20204;-72
2023/04/09 03:11:55;;;;;;;28.63;20.77;;;;;;;;;;5023599;28;20204;-73
2023/04/09 03:14:22;;;;;;;29.57;22.20;;;;;;;;;;5023736;28;20200;-72
2023/04/09 03:16:49;;;;;;;26.57;20.77;;;;;;;;;;5023464;28;20227;-72
2023/04/09 03:19:16;;;;;;;28.23;21.30;;;;;;;;;;5020996;28;20216;-72
2023/04/09 03:21:43;;;;;;;27.80;22.03;;;;;;;;;;5023086;28;20204;-72
2023/04/09 03:24:10;;;;;;;28.30;20.90;;;;;;;;;;5015783;28;20207;-72
2023/04/09 03:26:37;;;;;;;23.20;19.30;;;;;;;;;;5021350;28;20205;-73
2023/04/09 03:29:06;;;;;;;24.40;18.83;;;;;;;;;;5025705;28;20239;-73
2023/04/09 03:31:34;;;;;;;25.37;18.57;;;;;;;;;;5024188;28;20205;-73
2023/04/09 03:34:01;;;;;;;25.67;20.07;;;;;;;;;;5023816;28;20204;-73
2023/04/09 03:36:28;;;;;;;27.40;20.60;;;;;;;;;;5023532;28;20216;-72
2023/04/09 03:38:55;;;;;;;26.83;20.73;;;;;;;;;;5023955;28;20193;-73
2023/04/09 03:41:22;;;;;;;24.87;19.77;;;;;;;;;;5022410;28;20219;-73
2023/04/09 03:43:49;;;;;;;29.00;19.80;;;;;;;;;;5019859;28;20207;-73
2023/04/09 03:46:18;;;;;;;27.70;19.90;;;;;;;;;;5020258;28;20200;-73
2023/04/09 03:48:46;;;;;;;27.37;20.97;;;;;;;;;;5021305;28;20204;-72
2023/04/09 03:51:13;;;;;;;25.40;19.37;;;;;;;;;;5018337;28;20205;-73
2023/04/09 03:53:40;;;;;;;25.50;21.03;;;;;;;;;;5024608;28;20204;-73
2023/04/09 03:56:08;;;;;;;26.90;19.97;;;;;;;;;;5019632;28;20224;-72
2023/04/09 03:58:35;;;;;;;28.13;21.10;;;;;;;;;;5019909;28;20215;-73
2023/04/09 04:01:02;;;;;;;25.60;20.43;;;;;;;;;;5021591;28;20205;-73
2023/04/09 04:03:30;;;;;;;28.57;20.73;;;;;;;;;;5026924;28;20204;-72
2023/04/09 04:06:01;;;;;;;25.57;20.07;;;;;;;;;;5025064;28;20220;-72
2023/04/09 04:08:29;;;;;;;28.93;20.73;;;;;;;;;;5019625;28;20205;-72
2023/04/09 04:10:56;;;;;;;24.50;19.57;;;;;;;;;;5020759;28;20204;-73
2023/04/09 04:13:23;;;;;;;24.50;19.43;;;;;;;;;;5026339;28;20207;-72
2023/04/09 04:15:50;;;;;;;26.20;19.73;;;;;;;;;;5021855;28;20232;-72
2023/04/09 04:18:17;;;;;;;22.63;17.80;;;;;;;;;;5026970;28;20208;-72
2023/04/09 04:20:45;;;;;;;19.03;15.47;;;;;;;;;;5023504;28;20208;-73
2023/04/09 04:23:13;;;;;;;22.50;16.60;;;;;;;;;;5026054;28;20211;-73
2023/04/09 04:25:41;;;;;;;20.73;15.83;;;;;;;;;;5025851;28;20204;-73
2023/04/09 04:28:08;;;;;;;20.97;16.50;;;;;;;;;;5018942;28;20235;-72
2023/04/09 04:30:35;;;;;;;20.80;16.70;;;;;;;;;;5024290;28;20202;-73
2023/04/09 04:33:03;;;;;;;21.13;16.93;;;;;;;;;;5018912;28;20204;-72
2023/04/09 04:35:30;;;;;;;17.90;14.60;;;;;;;;;;5025015;28;20212;-73
2023/04/09 04:37:58;;;;;;;19.93;15.80;;;;;;;;;;5020663;28;20225;-73
2023/04/09 04:40:25;;;;;;;17.13;14.00;;;;;;;;;;5025524;28;20211;-72
2023/04/09 04:42:52;;;;;;;17.97;14.37;;;;;;;;;;5019528;28;20251;-73
2023/04/09 04:45:19;;;;;;;16.33;12.97;;;;;;;;;;5018153;28;20202;-73
2023/04/09 04:47:46;;;;;;;14.77;12.13;;;;;;;;;;5023637;28;20211;-72
2023/04/09 04:50:14;;;;;;;14.60;12.23;;;;;;;;;;5022004;28;20207;-73
2023/04/09 04:52:41;;;;;;;15.50;12.40;;;;;;;;;;5021386;28;20204;-73
2023/04/09 04:55:10;;;;;;;16.77;13.43;;;;;;;;;;5021012;28;20208;-72
2023/04/09 04:57:37;;;;;;;15.27;12.47;;;;;;;;;;5020144;28;20220;-72
2023/04/09 05:00:04;;;;;;;14.73;13.10;;;;;;;;;;5022907;28;20215;-73
2023/04/09 05:02:31;;;;;;;14.60;12.27;;;;;;;;;;5022783;28;20208;-73
2023/04/09 05:04:58;;;;;;;21.33;15.53;;;;;;;;;;5023690;28;20200;-72
2023/04/09 05:07:25;;;;;;;18.73;15.37;;;;;;;;;;5026799;28;20201;-73
2023/04/09 05:09:52;;;;;;;18.47;14.90;;;;;;;;;;5017702;28;20204;-73
2023/04/09 05:12:21;;;;;;;18.67;15.43;;;;;;;;;;5019271;28;20201;-73
2023/04/09 05:14:48;;;;;;;16.77;13.40;;;;;;;;;;5022605;28;20204;-72
2023/04/09 05:17:15;;;;;;;14.43;11.80;;;;;;;;;;5021407;28;20231;-73
2023/04/09 05:19:42;;;;;;;12.07;10.63;;;;;;;;;;5028380;28;20227;-72
2023/04/09 05:22:09;;;;;;;11.23;9.40;;;;;;;;;;5016862;28;20204;-73
2023/04/09 05:24:36;;;;;;;10.97;8.80;;;;;;;;;;5018079;28;20201;-73
2023/04/09 05:27:03;;;;;;;10.40;9.03;;;;;;;;;;5021201;28;20204;-73
2023/04/09 05:29:32;;;;;;;12.20;9.33;;;;;;;;;;5020722;28;20243;-73
2023/04/09 05:31:59;;;;;;;13.73;11.00;;;;;;;;;;5024374;28;20204;-73
2023/04/09 05:34:26;;;;;;;17.40;13.03;;;;;;;;;;5023256;28;20200;-72
2023/04/09 05:36:54;;;;;;;15.93;12.63;;;;;;;;;;5020675;28;20208;-73
2023/04/09 05:39:21;;;;;;;18.47;14.53;;;;;;;;;;5026963;28;20270;-72
2023/04/09 05:41:48;;;;;;;17.00;12.80;;;;;;;;;;5018649;28;20215;-73
2023/04/09 05:44:15;;;;;;;14.67;12.33;;;;;;;;;;5018987;28;20201;-72
2023/04/09 05:46:44;;;;;;;12.87;11.20;;;;;;;;;;5016071;28;20200;-72
2023/04/09 05:49:11;;;;;;;12.17;10.60;;;;;;;;;;5029450;28;20222;-72
2023/04/09 05:51:38;;;;;;;12.60;10.67;;;;;;;;;;5028460;28;20220;-73
2023/04/09 05:54:05;;;;;;;12.50;10.40;;;;;;;;;;5023654;28;20212;-73
2023/04/09 05:56:32;;;;;;;11.33;9.23;;;;;;;;;;5020951;28;20227;-73
2023/04/09 05:58:59;;;;;;;9.63;8.63;;;;;;;;;;5020644;28;20201;-73
2023/04/09 06:01:26;;;;;;;10.00;8.07;;;;;;;;;;5022588;28;20204;-73
2023/04/09 06:03:55;;;;;;;8.43;7.53;;;;;;;;;;5023724;28;20208;-73
2023/04/09 06:06:22;;;;;;;8.77;7.87;;;;;;;;;;5028243;28;20196;-73
2023/04/09 06:08:49;;;;;;;8.47;7.00;;;;;;;;;;5028261;28;20267;-73
2023/04/09 06:11:16;;;;;;;9.07;7.90;;;;;;;;;;5025714;28;20215;-73
2023/04/09 06:13:43;;;;;;;7.77;7.03;;;;;;;;;;5025966;28;20212;-73
2023/04/09 06:16:10;;;;;;;7.30;6.60;;;;;;;;;;5012992;28;20205;-73
2023/04/09 06:18:38;;;;;;;9.03;7.67;;;;;;;;;;5023104;28;20206;-72
2023/04/09 06:21:07;;;;;;;8.30;7.20;;;;;;;;;;5017771;28;20214;-73
2023/04/09 06:23:35;;;;;;;8.80;7.47;;;;;;;;;;5023702;28;20203;-72
2023/04/09 06:26:02;;;;;;;8.40;7.50;;;;;;;;;;5031797;28;20196;-73
2023/04/09 06:28:30;;;;;;;8.20;7.40;;;;;;;;;;5025416;28;20338;-73
2023/04/09 06:30:57;;;;;;;7.17;6.47;;;;;;;;;;5025454;28;20295;-73
2023/04/09 06:33:24;;;;;;;8.70;7.83;;;;;;;;;;5030856;28;20204;-73
2023/04/09 06:35:53;;;;;;;9.50;8.03;;;;;;;;;;5020865;28;20276;-72
2023/04/09 06:38:21;;;;;;;8.43;7.53;;;;;;;;;;5025340;28;20230;-72
2023/04/09 06:40:48;;;;;;;9.57;8.57;;;;;;;;;;5028488;28;20204;-72
2023/04/09 06:43:15;;;;;;;10.33;8.93;;;;;;;;;;5027271;28;20195;-72
2023/04/09 06:45:42;;;;;;;9.63;8.47;;;;;;;;;;5023585;28;20215;-72
2023/04/09 06:48:09;;;;;;;10.23;8.27;;;;;;;;;;5022934;28;20209;-73
2023/04/09 06:50:36;;;;;;;8.90;8.00;;;;;;;;;;5019900;28;20209;-72
2023/04/09 06:53:04;;;;;;;9.80;7.63;;;;;;;;;;5024140;28;20208;-72
2023/04/09 06:55:32;;;;;;;8.37;7.57;;;;;;;;;;5027216;28;20231;-72
2023/04/09 06:58:01;;;;;;;9.97;8.00;;;;;;;;;;5024149;28;20231;-72
2023/04/09 07:00:28;;;;;;;8.57;7.50;;;;;;;;;;5021792;28;20209;-72
2023/04/09 07:02:55;;;;;;;8.80;7.90;;;;;;;;;;5025959;28;20226;-72
2023/04/09 07:05:22;;;;;;;8.27;7.43;;;;;;;;;;5023699;28;20204;-72
2023/04/09 07:07:50;;;;;;;9.07;7.87;;;;;;;;;;5015475;28;20208;-72
2023/04/09 07:10:17;;;;;;;8.80;7.67;;;;;;;;;;5025023;28;20215;-73
2023/04/09 07:12:45;;;;;;;8.37;7.40;;;;;;;;;;5022770;28;20207;-72
2023/04/09 07:15:12;;;;;;;8.17;7.37;;;;;;;;;;5018487;28;20201;-73
2023/04/09 07:17:39;;;;;;;8.43;7.63;;;;;;;;;;5018073;28;20223;-72
2023/04/09 07:20:07;;;;;;;8.30;7.50;;;;;;;;;;5019657;28;20214;-72
2023/04/09 07:22:35;;;;;;;8.43;7.60;;;;;;;;;;5018669;28;20215;-71
2023/04/09 07:25:02;;;;;;;8.70;7.90;;;;;;;;;;5020845;28;20208;-71
2023/04/09 07:27:29;;;;;;;10.23;8.40;;;;;;;;;;5021553;28;20204;-72
2023/04/09 07:29:58;;;;;;;8.07;7.27;;;;;;;;;;5021664;28;20205;-72
2023/04/09 07:32:26;;;;;;;9.30;7.80;;;;;;;;;;5021971;28;20208;-73
2023/04/09 07:34:54;;;;;;;8.63;7.40;;;;;;;;;;5020642;28;20204;-71
2023/04/09 07:37:21;;;;;;;8.47;7.57;;;;;;;;;;5023743;28;20227;-72
2023/04/09 07:39:48;;;;;;;8.03;7.30;;;;;;;;;;5022682;28;20207;-72
2023/04/09 07:42:15;;;;;;;8.27;7.47;;;;;;;;;;5019625;28;20209;-71
2023/04/09 07:44:42;;;;;;;8.63;7.73;;;;;;;;;;5018492;28;20211;-71
2023/04/09 07:47:11;;;;;;;7.93;7.13;;;;;;;;;;5020559;28;20240;-71
2023/04/09 07:49:38;;;;;;;10.33;7.50;;;;;;;;;;5021344;28;20239;-71
2023/04/09 07:52:06;;;;;;;8.37;7.27;;;;;;;;;;5022475;28;20227;-72
2023/04/09 07:54:33;;;;;;;7.90;7.10;;;;;;;;;;5022588;28;20291;-72
2023/04/09 07:57:01;;;;;;;8.00;7.23;;;;;;;;;;5024941;28;20204;-72
2023/04/09 07:59:30;;;;;;;7.27;6.57;;;;;;;;;;5021814;28;20231;-70
2023/04/09 08:01:57;;;;;;;7.70;7.00;;;;;;;;;;5022449;28;20204;-70
2023/04/09 08:04:26;;;;;;;7.47;6.77;;;;;;;;;;5021919;28;20225;-71
2023/04/09 08:06:53;;;;;;;8.00;7.20;;;;;;;;;;5018705;28;20211;-70
2023/04/09 08:09:20;;;;;;;7.77;7.03;;;;;;;;;;5023334;28;20203;-70
2023/04/09 08:11:48;;;;;;;8.63;7.83;;;;;;;;;;5025236;28;20196;-70
2023/04/09 08:14:16;;;;;;;7.90;7.10;;;;;;;;;;5020822;28;20207;-71
2023/04/09 08:16:43;;;;;;;8.23;7.23;;;;;;;;;;5019595;28;20205;-71
2023/04/09 08:19:10;;;;;;;7.50;6.77;;;;;;;;;;5021448;28;20219;-71
2023/04/09 08:21:41;;;;;;;7.60;6.90;;;;;;;;;;5020276;28;20205;-71
2023/04/09 08:24:10;;;;;;;8.50;7.70;;;;;;;;;;5021485;28;20204;-72
2023/04/09 08:26:37;;;;;;;7.67;6.90;;;;;;;;;;5021295;28;20240;-71
2023/04/09 08:29:07;;;;;;;7.67;6.60;;;;;;;;;;5020707;28;20316;-70
2023/04/09 08:31:35;;;;;;;8.00;7.20;;;;;;;;;;5020815;28;20201;-70
2023/04/09 08:34:02;;;;;;;8.13;7.33;;;;;;;;;;5020834;28;20205;-70
2023/04/09 08:36:30;;;;;;;8.10;7.30;;;;;;;;;;5020073;28;20225;-71
2023/04/09 08:38:59;;;;;;;8.23;7.43;;;;;;;;;;5017831;28;20223;-70
2023/04/09 08:41:28;;;;;;;8.27;7.40;;;;;;;;;;5017998;28;20213;-72
2023/04/09 08:43:55;;;;;;;7.93;7.23;;;;;;;;;;5017809;28;20231;-70
2023/04/09 08:46:23;;;;;;;8.63;7.73;;;;;;;;;;5022649;28;20200;-72
2023/04/09 08:48:51;;;;;;;7.17;6.53;;;;;;;;;;5023333;28;20201;-71
2023/04/09 08:51:18;;;;;;;8.00;7.23;;;;;;;;;;5024459;28;20219;-70
2023/04/09 08:53:46;;;;;;;8.00;7.20;;;;;;;;;;5021191;28;20208;-70
2023/04/09 08:56:15;;;;;;;6.67;6.07;;;;;;;;;;5022954;28;20212;-70
2023/04/09 08:58:44;;;;;;;7.73;6.93;;;;;;;;;;5021962;28;20228;-70
2023/04/09 09:01:21;;;;;;;7.30;6.60;;;;;;;;;;5019220;28;20209;-70
2023/04/09 09:03:56;;;;;;;8.00;7.20;;;;;;;;;;5023333;28;20204;-70
2023/04/09 09:06:23;;;;;;;7.80;7.00;;;;;;;;;;5019479;28;20204;-70
2023/04/09 09:09:07;;;;;;;7.10;6.25;;;;;;;;;;5020257;28;20204;-70
2023/04/09 09:11:35;;;;;;;7.23;6.53;;;;;;;;;;5016720;28;20212;-69
2023/04/09 09:14:03;;;;;;;7.40;6.70;;;;;;;;;;5018033;28;20204;-69
2023/04/09 09:16:31;;;;;;;6.28;5.68;;;;;;;;;;5019729;28;20208;-69
2023/04/09 09:18:59;;;;;;;6.75;6.15;;;;;;;;;;5017661;28;20228;-69
2023/04/09 09:21:33;;;;;;;7.13;6.45;;;;;;;;;;5019980;28;20215;-70
2023/04/09 09:24:00;;;;;;;7.10;6.40;;;;;;;;;;5020381;28;20228;-70
2023/04/09 09:26:28;;;;;;;6.85;6.25;;;;;;;;;;5023511;28;20224;-69
2023/04/09 09:28:58;;;;;;;7.10;6.25;;;;;;;;;;5019193;28;20237;-70
2023/04/09 09:31:25;;;;;;;6.93;6.22;;;;;;;;;;5022424;28;20212;-69
2023/04/09 09:33:52;;;;;;;6.57;5.95;;;;;;;;;;5016618;28;20197;-69
2023/04/09 09:36:32;;;;;;;6.95;6.30;;;;;;;;;;5020317;28;20304;-70
2023/04/09 09:39:02;;;;;;;6.50;5.85;;;;;;;;;;5019943;28;20212;-70
2023/04/09 09:41:29;;;;;;;6.20;5.68;;;;;;;;;;5015528;28;20206;-71
2023/04/09 09:43:58;;;;;;;6.53;5.93;;;;;;;;;;5023508;28;20248;-70
2023/04/09 09:46:29;;;;;;;6.00;5.50;;;;;;;;;;5020716;28;20202;-70
2023/04/09 09:48:56;;;;;;;5.90;5.40;;;;;;;;;;5018797;28;20254;-70
2023/04/09 09:51:27;;;;;;;6.40;5.80;;;;;;;;;;5022153;28;20205;-70
2023/04/09 09:53:55;;;;;;;6.35;5.85;;;;;;;;;;5021882;28;20208;-69
2023/04/09 09:56:24;;;;;;;6.38;5.78;;;;;;;;;;5021936;28;20247;-69
2023/04/09 09:58:55;;;;;;;6.80;5.88;;;;;;;;;;5019812;28;20220;-69
2023/04/09 10:01:24;;;;;;;6.32;5.72;;;;;;;;;;5017072;28;20208;-69
2023/04/09 10:03:52;;;;;;;6.45;5.85;;;;;;;;;;5026496;28;20346;-69
2023/04/09 10:06:19;;;;;;;5.95;5.35;;;;;;;;;;5014691;28;20205;-68
2023/04/09 10:08:49;;;;;;;5.47;5.00;;;;;;;;;;5015338;28;20211;-69
2023/04/09 10:11:17;;;;;;;5.78;5.22;;;;;;;;;;5024678;28;20214;-69
2023/04/09 10:13:46;;;;;;;6.15;5.45;;;;;;;;;;5020829;28;20210;-69
2023/04/09 10:16:14;;;;;;;5.28;4.82;;;;;;;;;;5016339;28;20210;-69
2023/04/09 10:18:42;;;;;;;5.50;5.00;;;;;;;;;;5020703;28;20232;-69
2023/04/09 10:21:13;;;;;;;5.88;5.38;;;;;;;;;;5017920;28;20210;-69
2023/04/09 10:23:41;;;;;;;5.30;4.80;;;;;;;;;;5018780;28;20212;-69
2023/04/09 10:26:09;;;;;;;6.00;4.90;;;;;;;;;;5021507;28;20201;-70
2023/04/09 10:28:38;;;;;;;5.40;4.90;;;;;;;;;;5018189;28;20240;-71
2023/04/09 10:31:05;;;;;;;4.88;4.10;;;;;;;;;;5018960;28;20251;-71
2023/04/09 10:33:32;;;;;;;4.80;4.40;;;;;;;;;;5022119;28;20208;-69
2023/04/09 10:36:03;;;;;;;4.90;4.40;;;;;;;;;;5024987;28;20204;-69
2023/04/09 10:38:37;;;;;;;5.03;4.60;;;;;;;;;;5027308;28;20299;-69
2023/04/09 10:41:08;;;;;;;4.80;4.38;;;;;;;;;;5015270;28;20211;-69
2023/04/09 10:43:36;;;;;;;4.32;4.03;;;;;;;;;;5020111;28;20292;-69
2023/04/09 10:46:05;;;;;;;4.60;4.20;;;;;;;;;;5020236;28;20212;-69
2023/04/09 10:48:33;;;;;;;4.70;4.30;;;;;;;;;;5020209;28;20232;-61
2023/04/09 10:51:04;;;;;;;5.10;4.70;;;;;;;;;;5019280;28;20196;-61
2023/04/09 10:53:32;;;;;;;4.82;4.43;;;;;;;;;;5018540;28;20208;-62
2023/04/09 10:56:00;;;;;;;4.80;4.40;;;;;;;;;;5020061;28;20205;-61
2023/04/09 10:58:27;;;;;;;5.07;4.65;;;;;;;;;;5021643;28;20252;-62
2023/04/09 11:00:55;;;;;;;12.52;5.28;;;;;;;;;;5018978;28;20201;-61
2023/04/09 11:03:24;;;;;;;5.53;5.00;;;;;;;;;;5018007;28;20232;-61
2023/04/09 11:05:52;;;;;;;4.85;4.45;;;;;;;;;;5018662;28;20197;-61
2023/04/09 11:08:21;;;;;;;5.07;4.57;;;;;;;;;;5021003;28;20205;-61
2023/04/09 11:10:49;;;;;;;4.78;4.38;;;;;;;;;;5019123;28;20209;-63
2023/04/09 11:13:17;;;;;;;5.28;4.40;;;;;;;;;;5025935;28;20296;-61
2023/04/09 11:15:44;;;;;;;4.30;3.90;;;;;;;;;;5021220;28;20204;-62
2023/04/09 11:18:14;;;;;;;4.13;3.80;;;;;;;;;;5022883;28;20236;-61
2023/04/09 11:20:42;;;;;;;5.03;4.53;;;;;;;;;;5027262;28;20222;-61
2023/04/09 11:23:09;;;;;;;4.03;3.72;;;;;;;;;;5025528;28;20213;-61
2023/04/09 11:25:37;;;;;;;5.05;4.50;;;;;;;;;;5020355;28;20205;-61
2023/04/09 11:28:05;;;;;;;4.65;4.25;;;;;;;;;;5024233;28;20236;-61
2023/04/09 11:30:33;;;;;;;5.60;4.70;;;;;;;;;;5022017;28;20215;-61
2023/04/09 11:33:01;;;;;;;4.80;4.40;;;;;;;;;;5021190;28;20220;-62
2023/04/09 11:35:31;;;;;;;5.43;4.93;;;;;;;;;;5022102;28;20216;-61
2023/04/09 11:37:58;;;;;;;5.07;4.68;;;;;;;;;;5023230;28;20208;-62
2023/04/09 11:40:27;;;;;;;6.00;5.40;;;;;;;;;;5019974;28;20212;-61
2023/04/09 11:42:56;;;;;;;5.78;5.28;;;;;;;;;;5023508;28;20212;-62
2023/04/09 11:45:25;;;;;;;6.25;5.40;;;;;;;;;;5021137;28;20209;-62
2023/04/09 11:47:52;;;;;;;4.68;4.28;;;;;;;;;;5032011;28;20201;-62
2023/04/09 11:50:20;;;;;;;4.88;4.47;;;;;;;;;;5024139;28;20204;-62
2023/04/09 11:52:47;;;;;;;4.70;4.30;;;;;;;;;;5025639;28;20203;-61
2023/04/09 11:55:23;;;;;;;4.80;4.25;;;;;;;;;;5029410;28;20204;-62
2023/04/09 11:57:51;;;;;;;4.50;4.10;;;;;;;;;;5027359;28;20202;-61
2023/04/09 12:00:20;;;;;;;4.10;3.80;;;;;;;;;;5023371;28;20220;-61
2023/04/09 12:02:48;;;;;;;4.50;4.10;;;;;;;;;;5025609;28;20284;-62
2023/04/09 12:05:21;;;;;;;4.00;3.70;;;;;;;;;;5023899;28;20209;-61
2023/04/09 12:07:49;;;;;;;3.97;3.60;;;;;;;;;;5027517;28;20219;-61
2023/04/09 12:10:16;;;;;;;4.80;4.40;;;;;;;;;;5020149;28;20243;-61
2023/04/09 12:12:44;;;;;;;4.80;4.40;;;;;;;;;;5022681;28;20204;-62
2023/04/09 12:15:12;;;;;;;5.00;4.50;;;;;;;;;;5021600;28;20208;-61
2023/04/09 12:17:40;;;;;;;4.85;4.40;;;;;;;;;;5024583;28;20208;-62
2023/04/09 12:20:08;;;;;;;4.20;3.90;;;;;;;;;;5021858;28;20469;-61
2023/04/09 12:22:39;;;;;;;4.20;3.80;;;;;;;;;;5020970;28;20230;-61
2023/04/09 12:25:07;;;;;;;4.05;3.75;;;;;;;;;;5027923;28;20223;-61
2023/04/09 12:27:34;;;;;;;3.97;3.67;;;;;;;;;;5023720;28;20231;-62
2023/04/09 12:30:01;;;;;;;4.03;3.72;;;;;;;;;;5021302;28;20216;-61
2023/04/09 12:32:28;;;;;;;4.38;3.97;;;;;;;;;;5026795;28;20212;-62
2023/04/09 12:34:57;;;;;;;3.97;3.67;;;;;;;;;;5024061;28;20208;-61
2023/04/09 12:37:24;;;;;;;3.90;3.60;;;;;;;;;;5019173;28;20209;-61
2023/04/09 12:39:51;;;;;;;3.30;3.10;;;;;;;;;;5021701;28;20232;-61
2023/04/09 12:42:18;;;;;;;4.10;3.80;;;;;;;;;;5022165;28;20204;-61
2023/04/09 12:44:45;;;;;;;3.55;3.35;;;;;;;;;;5019066;28;20208;-61
2023/04/09 12:47:12;;;;;;;3.58;3.28;;;;;;;;;;5019237;28;20212;-61
2023/04/09 12:49:43;;;;;;;3.72;3.42;;;;;;;;;;5020948;28;20216;-61
2023/04/09 12:52:12;;;;;;;3.25;3.05;;;;;;;;;;5018996;28;20259;-63
2023/04/09 12:54:39;;;;;;;4.13;3.65;;;;;;;;;;5022101;28;20215;-62
2023/04/09 12:57:07;;;;;;;3.88;3.58;;;;;;;;;;5023173;28;20294;-61
2023/04/09 12:59:34;;;;;;;3.50;3.30;;;;;;;;;;5024768;28;20224;-61
2023/04/09 13:02:01;;;;;;;3.63;3.33;;;;;;;;;;5027894;28;20212;-62
2023/04/09 13:04:28;;;;;;;3.65;3.20;;;;;;;;;;5019375;28;20210;-61
2023/04/09 13:06:55;;;;;;;4.63;3.70;;;;;;;;;;5027384;28;20208;-61
2023/04/09 13:09:24;;;;;;;3.88;3.53;;;;;;;;;;5016484;28;20204;-61
2023/04/09 13:11:51;;;;;;;3.60;3.30;;;;;;;;;;5016987;28;20213;-61
2023/04/09 13:14:18;;;;;;;3.80;3.50;;;;;;;;;;5022390;28;20267;-61
2023/04/09 13:16:45;;;;;;;3.65;3.33;;;;;;;;;;5020192;28;20214;-61
2023/04/09 13:19:12;;;;;;;3.78;3.47;;;;;;;;;;5025465;28;20229;-61
2023/04/09 13:21:40;;;;;;;4.07;3.78;;;;;;;;;;5018367;28;20220;-61
2023/04/09 13:24:07;;;;;;;3.30;3.10;;;;;;;;;;5017951;28;20213;-62
2023/04/09 13:26:35;;;;;;;3.42;3.22;;;;;;;;;;5024335;28;20210;-61
2023/04/09 13:29:03;;;;;;;3.38;3.08;;;;;;;;;;5018020;28;20302;-61
2023/04/09 13:31:30;;;;;;;3.60;3.30;;;;;;;;;;5021721;28;20209;-61
2023/04/09 13:33:57;;;;;;;3.88;3.58;;;;;;;;;;5025733;28;20273;-61
2023/04/09 13:36:24;;;;;;;3.70;3.40;;;;;;;;;;5025480;28;20240;-62
2023/04/09 13:38:51;;;;;;;4.32;3.97;;;;;;;;;;5027582;28;20225;-61
2023/04/09 13:41:18;;;;;;;5.30;4.82;;;;;;;;;;5017313;28;20212;-61
2023/04/09 13:43:47;;;;;;;3.40;3.20;;;;;;;;;;5020661;28;20234;-61
2023/04/09 13:46:14;;;;;;;3.22;2.92;;;;;;;;;;5021808;28;20216;-61
2023/04/09 13:48:42;;;;;;;3.10;2.90;;;;;;;;;;5015067;28;20221;-61
2023/04/09 13:51:09;;;;;;;3.20;3.00;;;;;;;;;;5021066;28;20279;-61
2023/04/09 13:53:36;;;;;;;3.53;2.97;;;;;;;;;;5018902;28;20212;-63
2023/04/09 13:56:03;;;;;;;4.13;3.30;;;;;;;;;;5019665;28;20261;-61
2023/04/09 13:58:30;;;;;;;4.82;4.43;;;;;;;;;;5019046;28;20227;-61
2023/04/09 14:00:59;;;;;;;4.38;3.97;;;;;;;;;;5014997;28;20224;-61
2023/04/09 14:03:26;;;;;;;4.00;3.70;;;;;;;;;;5017987;28;20212;-61
2023/04/09 14:05:53;;;;;;;2.95;2.70;;;;;;;;;;5018326;28;20208;-61
2023/04/09 14:08:20;;;;;;;3.28;3.00;;;;;;;;;;5015114;28;20215;-61
2023/04/09 14:10:48;;;;;;;3.58;3.10;;;;;;;;;;5020146;28;20193;-61
2023/04/09 14:13:15;;;;;;;3.35;3.10;;;;;;;;;;5020134;28;20205;-61
2023/04/09 14:15:44;;;;;;;3.10;2.80;;;;;;;;;;5021070;28;20216;-61
2023/04/09 14:18:12;;;;;;;3.30;2.70;;;;;;;;;;5018921;28;20208;-61
2023/04/09 14:20:39;;;;;;;3.00;2.80;;;;;;;;;;5021524;28;20216;-62
2023/04/09 14:23:06;;;;;;;2.80;2.60;;;;;;;;;;5023130;28;20213;-61
2023/04/09 14:25:33;;;;;;;3.25;3.05;;;;;;;;;;5017939;28;20203;-61
2023/04/09 14:28:01;;;;;;;2.60;2.40;;;;;;;;;;5020713;28;20243;-61
2023/04/09 14:30:28;;;;;;;2.53;2.40;;;;;;;;;;5018997;28;20207;-61
2023/04/09 14:32:55;;;;;;;2.72;2.55;;;;;;;;;;5018503;28;20204;-61
2023/04/09 14:35:24;;;;;;;2.70;2.50;;;;;;;;;;5019864;28;20196;-61
2023/04/09 14:37:51;;;;;;;2.88;2.67;;;;;;;;;;5018482;28;20243;-61